Huvudsida
METAR-TAF:

METAR-TAF

Flygplatser :

Nyslotts flygplats

Nyslott, Finland

latitud: 61-57N, longitud: 028-57E, höjd: 95 m

Aktuellt väderrapport

Denna rapport gjordes för 38 minuter sedan, klockan 23:20 UTC
Vind 11 kt från ost/sydost
Temperatur 5°C
Fuktighet 93%
Tryck 1027 hPa
Sikt 10 km eller mer
Mulet på en höjd av 800 ft

METAR: EFSA 182320Z AUTO 12011KT 9999 OVC008 05/04 Q1027

Tid: 01:58 (23:58 UTC)

Väderprognos

Denna rapport gjordes för 6 timmar och 22 minuter sedan, klockan 17:36 UTC
Prognos gäller från 18 kl. 18 UTC till 18 kl. 21 UTC
Vind 2 kt från ost
Sikt 10 km eller mer
Mulet på en höjd av 200 ft
Temporärt
från 18 kl. 18 UTC till 18 kl. 21 UTC
Sikt: 2000 m
Mulet på en höjd av 100 ft
fuktdis
Sannolikhet 40%
från 18 kl. 18 UTC till 18 kl. 21 UTC
Sikt: 0600 m
dimma

TAF: EFSA 181736Z 1818/1821 10002KT 9999 OVC002 TEMPO 1818/1821 2000 BR OVC001 PROB40 1818/1821 0600 FG

Aktuella väderrapporter och prognoser från 4000 flygplatser (METAR- och TAF-rapporter).

De tillgängliga stationerna syns som gula och röda prickar på kartan.

För musen över prickarna för att se namnen på stationerna.

Klicka sedan för att få väderrapporter och prognoser.

För att ändra kartan: Klicka på de gröna knapparna med ett svart kors på för att zooma in; den gröna knappen med ett streck på för att zooma ut; eller på de gröna pilarna för angränsande kartor.


METAR-TAF: